Terminal Aerodrome Forecast
Issued by NWS

Home | Current Version | Previous Version | Text Only | Print | Product List | Glossary On
Versions: 1 2 3 4 5 6 7 8 9 10 11 12 13
000
FTUS46 KMFR 270539
TAFOTH
TAF
KOTH 270539Z 2706/2806 36010KT P6SM SCT020 BKN050
      TEMPO 2706/2710 BKN020
     FM271000 36008KT P6SM OVC020
     FM271800 35012G20KT P6SM SCT025 SCT050
     FM272100 35014G25KT P6SM SKC
     FM280300 36010KT P6SM SKC=

USA.gov is the U.S. government's official web portal to all federal, state and local government web resources and services.